sensor_id;sensor_type;location;lat;lon;timestamp;temperature;humidity
65374;SHT31;52070;53.760;9.678;2024-03-02T00:00:49;7.54;87.86
65374;SHT31;52070;53.760;9.678;2024-03-02T00:03:17;7.57;87.88
65374;SHT31;52070;53.760;9.678;2024-03-02T00:05:49;7.57;87.91
65374;SHT31;52070;53.760;9.678;2024-03-02T00:08:23;7.60;87.89
65374;SHT31;52070;53.760;9.678;2024-03-02T00:10:50;7.54;87.90
65374;SHT31;52070;53.760;9.678;2024-03-02T00:13:20;7.55;87.85
65374;SHT31;52070;53.760;9.678;2024-03-02T00:15:50;7.57;87.83
65374;SHT31;52070;53.760;9.678;2024-03-02T00:18:21;7.58;87.80
65374;SHT31;52070;53.760;9.678;2024-03-02T00:20:48;7.54;88.05
65374;SHT31;52070;53.760;9.678;2024-03-02T00:23:15;7.58;88.08
65374;SHT31;52070;53.760;9.678;2024-03-02T00:25:45;7.54;88.03
65374;SHT31;52070;53.760;9.678;2024-03-02T00:28:17;7.54;88.06
65374;SHT31;52070;53.760;9.678;2024-03-02T00:30:59;7.54;87.98
65374;SHT31;52070;53.760;9.678;2024-03-02T00:33:30;7.52;87.99
65374;SHT31;52070;53.760;9.678;2024-03-02T00:35:57;7.51;88.03
65374;SHT31;52070;53.760;9.678;2024-03-02T00:38:25;7.52;88.11
65374;SHT31;52070;53.760;9.678;2024-03-02T00:40:53;7.52;88.10
65374;SHT31;52070;53.760;9.678;2024-03-02T00:43:42;7.58;88.03
65374;SHT31;52070;53.760;9.678;2024-03-02T00:46:11;7.54;88.02
65374;SHT31;52070;53.760;9.678;2024-03-02T00:48:47;7.52;87.93
65374;SHT31;52070;53.760;9.678;2024-03-02T00:51:14;7.51;87.91
65374;SHT31;52070;53.760;9.678;2024-03-02T00:53:42;7.51;87.83
65374;SHT31;52070;53.760;9.678;2024-03-02T00:56:09;7.50;87.97
65374;SHT31;52070;53.760;9.678;2024-03-02T00:58:37;7.44;88.10
65374;SHT31;52070;53.760;9.678;2024-03-02T01:01:05;7.41;88.26
65374;SHT31;52070;53.760;9.678;2024-03-02T01:03:32;7.40;88.31
65374;SHT31;52070;53.760;9.678;2024-03-02T01:06:01;7.38;88.33
65374;SHT31;52070;53.760;9.678;2024-03-02T01:08:28;7.38;88.47
65374;SHT31;52070;53.760;9.678;2024-03-02T01:10:55;7.32;88.46
65374;SHT31;52070;53.760;9.678;2024-03-02T01:13:22;7.32;88.52
65374;SHT31;52070;53.760;9.678;2024-03-02T01:15:49;7.34;88.48
65374;SHT31;52070;53.760;9.678;2024-03-02T01:18:16;7.32;88.39
65374;SHT31;52070;53.760;9.678;2024-03-02T01:20:43;7.32;88.45
65374;SHT31;52070;53.760;9.678;2024-03-02T01:23:12;7.34;88.57
65374;SHT31;52070;53.760;9.678;2024-03-02T01:25:39;7.34;88.52
65374;SHT31;52070;53.760;9.678;2024-03-02T01:28:06;7.38;88.49
65374;SHT31;52070;53.760;9.678;2024-03-02T01:30:33;7.37;88.59
65374;SHT31;52070;53.760;9.678;2024-03-02T01:33:00;7.37;88.63
65374;SHT31;52070;53.760;9.678;2024-03-02T01:35:27;7.37;88.64
65374;SHT31;52070;53.760;9.678;2024-03-02T01:37:54;7.34;88.61
65374;SHT31;52070;53.760;9.678;2024-03-02T01:40:23;7.37;88.61
65374;SHT31;52070;53.760;9.678;2024-03-02T01:42:52;7.40;88.74
65374;SHT31;52070;53.760;9.678;2024-03-02T01:45:20;7.43;88.76
65374;SHT31;52070;53.760;9.678;2024-03-02T01:47:47;7.46;88.74
65374;SHT31;52070;53.760;9.678;2024-03-02T01:50:14;7.47;88.85
65374;SHT31;52070;53.760;9.678;2024-03-02T01:52:41;7.50;88.87
65374;SHT31;52070;53.760;9.678;2024-03-02T01:55:09;7.48;88.86
65374;SHT31;52070;53.760;9.678;2024-03-02T01:57:38;7.48;88.97
65374;SHT31;52070;53.760;9.678;2024-03-02T02:00:06;7.50;89.03
65374;SHT31;52070;53.760;9.678;2024-03-02T02:02:35;7.50;89.03
65374;SHT31;52070;53.760;9.678;2024-03-02T02:05:02;7.50;88.98
65374;SHT31;52070;53.760;9.678;2024-03-02T02:07:29;7.48;88.97
65374;SHT31;52070;53.760;9.678;2024-03-02T02:09:56;7.52;89.12
65374;SHT31;52070;53.760;9.678;2024-03-02T02:12:23;7.50;89.12
65374;SHT31;52070;53.760;9.678;2024-03-02T02:14:52;7.50;89.17
65374;SHT31;52070;53.760;9.678;2024-03-02T02:17:19;7.51;89.20
65374;SHT31;52070;53.760;9.678;2024-03-02T02:19:46;7.52;89.22
65374;SHT31;52070;53.760;9.678;2024-03-02T02:22:14;7.52;89.27
65374;SHT31;52070;53.760;9.678;2024-03-02T02:24:42;7.51;89.28
65374;SHT31;52070;53.760;9.678;2024-03-02T02:27:09;7.51;89.39
65374;SHT31;52070;53.760;9.678;2024-03-02T02:29:36;7.51;89.58
65374;SHT31;52070;53.760;9.678;2024-03-02T02:32:04;7.48;89.69
65374;SHT31;52070;53.760;9.678;2024-03-02T02:34:31;7.48;89.66
65374;SHT31;52070;53.760;9.678;2024-03-02T02:36:58;7.52;89.84
65374;SHT31;52070;53.760;9.678;2024-03-02T02:39:26;7.52;90.19
65374;SHT31;52070;53.760;9.678;2024-03-02T02:41:52;7.55;90.30
65374;SHT31;52070;53.760;9.678;2024-03-02T02:44:19;7.55;90.40
65374;SHT31;52070;53.760;9.678;2024-03-02T02:46:46;7.55;90.39
65374;SHT31;52070;53.760;9.678;2024-03-02T02:49:13;7.57;90.39
65374;SHT31;52070;53.760;9.678;2024-03-02T02:51:40;7.58;90.51
65374;SHT31;52070;53.760;9.678;2024-03-02T02:54:07;7.60;90.74
65374;SHT31;52070;53.760;9.678;2024-03-02T02:56:35;7.57;90.81
65374;SHT31;52070;53.760;9.678;2024-03-02T02:59:02;7.54;90.69
65374;SHT31;52070;53.760;9.678;2024-03-02T03:01:29;7.57;90.70
65374;SHT31;52070;53.760;9.678;2024-03-02T03:03:56;7.54;90.74
65374;SHT31;52070;53.760;9.678;2024-03-02T03:06:23;7.52;90.71
65374;SHT31;52070;53.760;9.678;2024-03-02T03:08:50;7.55;90.87
65374;SHT31;52070;53.760;9.678;2024-03-02T03:11:16;7.54;90.98
65374;SHT31;52070;53.760;9.678;2024-03-02T03:13:45;7.57;91.09
65374;SHT31;52070;53.760;9.678;2024-03-02T03:16:12;7.57;91.15
65374;SHT31;52070;53.760;9.678;2024-03-02T03:18:38;7.55;91.12
65374;SHT31;52070;53.760;9.678;2024-03-02T03:21:05;7.57;91.11
65374;SHT31;52070;53.760;9.678;2024-03-02T03:23:32;7.57;91.15
65374;SHT31;52070;53.760;9.678;2024-03-02T03:25:59;7.57;91.28
65374;SHT31;52070;53.760;9.678;2024-03-02T03:28:26;7.52;91.23
65374;SHT31;52070;53.760;9.678;2024-03-02T03:30:54;7.52;91.29
65374;SHT31;52070;53.760;9.678;2024-03-02T03:33:21;7.57;91.44
65374;SHT31;52070;53.760;9.678;2024-03-02T03:35:48;7.57;91.49
65374;SHT31;52070;53.760;9.678;2024-03-02T03:38:15;7.62;91.51
65374;SHT31;52070;53.760;9.678;2024-03-02T03:40:42;7.57;91.36
65374;SHT31;52070;53.760;9.678;2024-03-02T03:43:10;7.57;91.27
65374;SHT31;52070;53.760;9.678;2024-03-02T03:45:37;7.57;91.35
65374;SHT31;52070;53.760;9.678;2024-03-02T03:48:06;7.54;91.49
65374;SHT31;52070;53.760;9.678;2024-03-02T03:50:33;7.54;91.49
65374;SHT31;52070;53.760;9.678;2024-03-02T03:53:00;7.55;91.54
65374;SHT31;52070;53.760;9.678;2024-03-02T03:55:27;7.58;91.66
65374;SHT31;52070;53.760;9.678;2024-03-02T03:57:54;7.60;91.66
65374;SHT31;52070;53.760;9.678;2024-03-02T04:00:20;7.60;91.68
65374;SHT31;52070;53.760;9.678;2024-03-02T04:02:47;7.61;91.63
65374;SHT31;52070;53.760;9.678;2024-03-02T04:05:16;7.57;91.57
65374;SHT31;52070;53.760;9.678;2024-03-02T04:07:43;7.64;91.61
65374;SHT31;52070;53.760;9.678;2024-03-02T04:10:10;7.62;91.57
65374;SHT31;52070;53.760;9.678;2024-03-02T04:12:38;7.61;91.55
65374;SHT31;52070;53.760;9.678;2024-03-02T04:15:06;7.61;91.52
65374;SHT31;52070;53.760;9.678;2024-03-02T04:17:33;7.55;91.46
65374;SHT31;52070;53.760;9.678;2024-03-02T04:20:01;7.54;91.45
65374;SHT31;52070;53.760;9.678;2024-03-02T04:22:32;7.52;91.53
65374;SHT31;52070;53.760;9.678;2024-03-02T04:25:00;7.47;91.55
65374;SHT31;52070;53.760;9.678;2024-03-02T04:27:27;7.51;91.65
65374;SHT31;52070;53.760;9.678;2024-03-02T04:29:53;7.43;91.58
65374;SHT31;52070;53.760;9.678;2024-03-02T04:32:20;7.35;91.48
65374;SHT31;52070;53.760;9.678;2024-03-02T04:34:47;7.32;91.53
65374;SHT31;52070;53.760;9.678;2024-03-02T04:37:14;7.28;91.62
65374;SHT31;52070;53.760;9.678;2024-03-02T04:39:42;7.28;91.70
65374;SHT31;52070;53.760;9.678;2024-03-02T04:42:09;7.27;91.77
65374;SHT31;52070;53.760;9.678;2024-03-02T04:44:36;7.24;91.93
65374;SHT31;52070;53.760;9.678;2024-03-02T04:47:04;7.19;91.88
65374;SHT31;52070;53.760;9.678;2024-03-02T04:49:31;7.23;91.83
65374;SHT31;52070;53.760;9.678;2024-03-02T04:51:58;7.17;91.97
65374;SHT31;52070;53.760;9.678;2024-03-02T04:54:25;7.19;91.99
65374;SHT31;52070;53.760;9.678;2024-03-02T04:56:53;7.20;92.05
65374;SHT31;52070;53.760;9.678;2024-03-02T04:59:19;7.14;91.94
65374;SHT31;52070;53.760;9.678;2024-03-02T05:01:46;7.11;91.88
65374;SHT31;52070;53.760;9.678;2024-03-02T05:04:13;7.07;91.99
65374;SHT31;52070;53.760;9.678;2024-03-02T05:06:40;7.09;92.08
65374;SHT31;52070;53.760;9.678;2024-03-02T05:09:08;7.11;92.15
65374;SHT31;52070;53.760;9.678;2024-03-02T05:11:34;7.06;92.17
65374;SHT31;52070;53.760;9.678;2024-03-02T05:14:16;7.04;92.17
65374;SHT31;52070;53.760;9.678;2024-03-02T05:16:43;7.03;92.15
65374;SHT31;52070;53.760;9.678;2024-03-02T05:19:10;7.06;92.25
65374;SHT31;52070;53.760;9.678;2024-03-02T05:21:37;7.09;92.25
65374;SHT31;52070;53.760;9.678;2024-03-02T05:24:04;7.01;92.12
65374;SHT31;52070;53.760;9.678;2024-03-02T05:26:31;7.00;91.98
65374;SHT31;52070;53.760;9.678;2024-03-02T05:28:58;6.93;91.86
65374;SHT31;52070;53.760;9.678;2024-03-02T05:31:27;6.87;91.89
65374;SHT31;52070;53.760;9.678;2024-03-02T05:33:54;6.86;91.89
65374;SHT31;52070;53.760;9.678;2024-03-02T05:36:20;6.80;91.85
65374;SHT31;52070;53.760;9.678;2024-03-02T05:38:47;6.85;91.89
65374;SHT31;52070;53.760;9.678;2024-03-02T05:41:14;6.79;91.79
65374;SHT31;52070;53.760;9.678;2024-03-02T05:43:41;6.68;91.73
65374;SHT31;52070;53.760;9.678;2024-03-02T05:46:08;6.64;91.72
65374;SHT31;52070;53.760;9.678;2024-03-02T05:48:36;6.64;91.76
65374;SHT31;52070;53.760;9.678;2024-03-02T05:51:03;6.55;91.80
65374;SHT31;52070;53.760;9.678;2024-03-02T05:53:30;6.50;91.80
65374;SHT31;52070;53.760;9.678;2024-03-02T05:55:57;6.42;91.88
65374;SHT31;52070;53.760;9.678;2024-03-02T05:58:24;6.39;91.97
65374;SHT31;52070;53.760;9.678;2024-03-02T06:01:03;6.35;92.09
65374;SHT31;52070;53.760;9.678;2024-03-02T06:03:30;6.32;92.18
65374;SHT31;52070;53.760;9.678;2024-03-02T06:05:58;6.31;92.26
65374;SHT31;52070;53.760;9.678;2024-03-02T06:08:25;6.22;92.25
65374;SHT31;52070;53.760;9.678;2024-03-02T06:10:52;6.20;92.29
65374;SHT31;52070;53.760;9.678;2024-03-02T06:13:19;6.15;92.29
65374;SHT31;52070;53.760;9.678;2024-03-02T06:15:46;6.11;92.32
65374;SHT31;52070;53.760;9.678;2024-03-02T06:18:13;6.10;92.42
65374;SHT31;52070;53.760;9.678;2024-03-02T06:20:40;6.11;92.48
65374;SHT31;52070;53.760;9.678;2024-03-02T06:23:08;6.08;92.54
65374;SHT31;52070;53.760;9.678;2024-03-02T06:25:35;6.12;92.61
65374;SHT31;52070;53.760;9.678;2024-03-02T06:28:03;6.12;92.69
65374;SHT31;52070;53.760;9.678;2024-03-02T06:30:30;6.11;92.72
65374;SHT31;52070;53.760;9.678;2024-03-02T06:32:57;6.15;92.82
65374;SHT31;52070;53.760;9.678;2024-03-02T06:35:24;6.18;92.79
65374;SHT31;52070;53.760;9.678;2024-03-02T06:37:50;6.18;92.79
65374;SHT31;52070;53.760;9.678;2024-03-02T06:40:19;6.20;92.86
65374;SHT31;52070;53.760;9.678;2024-03-02T06:42:46;6.28;92.94
65374;SHT31;52070;53.760;9.678;2024-03-02T06:45:13;6.32;93.00
65374;SHT31;52070;53.760;9.678;2024-03-02T06:47:40;6.32;92.99
65374;SHT31;52070;53.760;9.678;2024-03-02T06:50:08;6.35;93.03
65374;SHT31;52070;53.760;9.678;2024-03-02T06:52:40;6.39;93.01
65374;SHT31;52070;53.760;9.678;2024-03-02T06:58:40;6.57;93.09
65374;SHT31;52070;53.760;9.678;2024-03-02T07:01:08;6.75;92.99
65374;SHT31;52070;53.760;9.678;2024-03-02T07:03:35;6.79;92.67
65374;SHT31;52070;53.760;9.678;2024-03-02T07:06:02;6.86;92.64
65374;SHT31;52070;53.760;9.678;2024-03-02T07:08:30;6.85;92.42
65374;SHT31;52070;53.760;9.678;2024-03-02T07:10:57;6.86;92.30
65374;SHT31;52070;53.760;9.678;2024-03-02T07:13:24;6.89;92.23
65374;SHT31;52070;53.760;9.678;2024-03-02T07:15:52;6.90;92.14
65374;SHT31;52070;53.760;9.678;2024-03-02T07:18:48;6.95;91.98
65374;SHT31;52070;53.760;9.678;2024-03-02T07:21:17;6.97;91.99
65374;SHT31;52070;53.760;9.678;2024-03-02T07:23:44;7.00;91.92
65374;SHT31;52070;53.760;9.678;2024-03-02T07:26:11;7.03;91.81
65374;SHT31;52070;53.760;9.678;2024-03-02T07:28:38;7.07;91.76
65374;SHT31;52070;53.760;9.678;2024-03-02T07:31:07;7.14;91.62
65374;SHT31;52070;53.760;9.678;2024-03-02T07:33:35;7.20;91.52
65374;SHT31;52070;53.760;9.678;2024-03-02T07:36:03;7.32;91.14
65374;SHT31;52070;53.760;9.678;2024-03-02T07:38:30;7.37;90.75
65374;SHT31;52070;53.760;9.678;2024-03-02T07:40:57;7.46;90.18
65374;SHT31;52070;53.760;9.678;2024-03-02T07:43:24;7.50;90.18
65374;SHT31;52070;53.760;9.678;2024-03-02T07:45:51;7.52;90.02
65374;SHT31;52070;53.760;9.678;2024-03-02T07:48:19;7.54;89.85
65374;SHT31;52070;53.760;9.678;2024-03-02T07:50:46;7.61;89.70
65374;SHT31;52070;53.760;9.678;2024-03-02T07:53:13;7.67;89.57
65374;SHT31;52070;53.760;9.678;2024-03-02T07:55:40;7.72;89.12
65374;SHT31;52070;53.760;9.678;2024-03-02T07:58:08;7.81;89.04
65374;SHT31;52070;53.760;9.678;2024-03-02T08:00:38;7.86;88.95
65374;SHT31;52070;53.760;9.678;2024-03-02T08:03:05;7.93;88.68
65374;SHT31;52070;53.760;9.678;2024-03-02T08:05:34;8.05;88.38
65374;SHT31;52070;53.760;9.678;2024-03-02T08:08:01;8.16;87.68
65374;SHT31;52070;53.760;9.678;2024-03-02T08:10:28;8.26;87.41
65374;SHT31;52070;53.760;9.678;2024-03-02T08:12:55;8.37;87.13
65374;SHT31;52070;53.760;9.678;2024-03-02T08:15:21;8.45;86.48
65374;SHT31;52070;53.760;9.678;2024-03-02T08:17:49;8.53;86.04
65374;SHT31;52070;53.760;9.678;2024-03-02T08:20:16;8.64;85.58
65374;SHT31;52070;53.760;9.678;2024-03-02T08:22:44;8.68;85.23
65374;SHT31;52070;53.760;9.678;2024-03-02T08:25:12;8.77;84.52
65374;SHT31;52070;53.760;9.678;2024-03-02T08:27:40;8.80;84.89
65374;SHT31;52070;53.760;9.678;2024-03-02T08:30:07;8.85;84.76
65374;SHT31;52070;53.760;9.678;2024-03-02T08:32:36;8.90;83.89
65374;SHT31;52070;53.760;9.678;2024-03-02T08:35:04;8.94;83.81
65374;SHT31;52070;53.760;9.678;2024-03-02T08:37:31;8.98;83.93
65374;SHT31;52070;53.760;9.678;2024-03-02T08:40:00;9.04;83.83
65374;SHT31;52070;53.760;9.678;2024-03-02T08:42:27;9.08;83.64
65374;SHT31;52070;53.760;9.678;2024-03-02T08:44:54;9.12;82.81
65374;SHT31;52070;53.760;9.678;2024-03-02T08:47:20;9.18;82.81
65374;SHT31;52070;53.760;9.678;2024-03-02T08:49:47;9.21;83.33
65374;SHT31;52070;53.760;9.678;2024-03-02T08:52:14;9.25;82.26
65374;SHT31;52070;53.760;9.678;2024-03-02T08:54:41;9.34;82.49
65374;SHT31;52070;53.760;9.678;2024-03-02T08:57:09;9.35;81.49
65374;SHT31;52070;53.760;9.678;2024-03-02T08:59:36;9.35;81.16
65374;SHT31;52070;53.760;9.678;2024-03-02T09:02:03;9.35;80.88
65374;SHT31;52070;53.760;9.678;2024-03-02T09:04:31;9.48;81.26
65374;SHT31;52070;53.760;9.678;2024-03-02T09:06:57;9.52;80.37
65374;SHT31;52070;53.760;9.678;2024-03-02T09:09:25;9.62;80.40
65374;SHT31;52070;53.760;9.678;2024-03-02T09:11:52;9.69;80.18
65374;SHT31;52070;53.760;9.678;2024-03-02T09:14:21;9.75;79.45
65374;SHT31;52070;53.760;9.678;2024-03-02T09:16:49;9.71;79.35
65374;SHT31;52070;53.760;9.678;2024-03-02T09:19:16;9.86;79.57
65374;SHT31;52070;53.760;9.678;2024-03-02T09:21:43;10.00;80.20
65374;SHT31;52070;53.760;9.678;2024-03-02T09:24:10;9.99;78.57
65374;SHT31;52070;53.760;9.678;2024-03-02T09:26:38;10.13;79.02
65374;SHT31;52070;53.760;9.678;2024-03-02T09:29:05;10.27;79.34
65374;SHT31;52070;53.760;9.678;2024-03-02T09:31:39;10.44;78.89
65374;SHT31;52070;53.760;9.678;2024-03-02T09:34:06;10.48;77.34
65374;SHT31;52070;53.760;9.678;2024-03-02T09:36:33;10.46;77.03
65374;SHT31;52070;53.760;9.678;2024-03-02T09:39:00;10.69;76.81
65374;SHT31;52070;53.760;9.678;2024-03-02T09:41:27;10.97;75.70
65374;SHT31;52070;53.760;9.678;2024-03-02T09:43:55;11.18;75.00
65374;SHT31;52070;53.760;9.678;2024-03-02T09:46:23;11.28;73.60
65374;SHT31;52070;53.760;9.678;2024-03-02T09:48:51;11.40;72.99
65374;SHT31;52070;53.760;9.678;2024-03-02T09:51:19;11.69;73.04
65374;SHT31;52070;53.760;9.678;2024-03-02T09:53:47;11.94;72.51
65374;SHT31;52070;53.760;9.678;2024-03-02T09:56:14;12.03;72.25
65374;SHT31;52070;53.760;9.678;2024-03-02T09:58:42;12.13;70.75
65374;SHT31;52070;53.760;9.678;2024-03-02T10:01:09;12.35;71.83
65374;SHT31;52070;53.760;9.678;2024-03-02T10:03:36;12.55;70.07
65374;SHT31;52070;53.760;9.678;2024-03-02T10:06:20;12.74;69.90
65374;SHT31;52070;53.760;9.678;2024-03-02T10:08:47;12.58;68.62
65374;SHT31;52070;53.760;9.678;2024-03-02T10:11:29;12.81;69.99
65374;SHT31;52070;53.760;9.678;2024-03-02T10:14:04;12.92;68.41
65374;SHT31;52070;53.760;9.678;2024-03-02T10:16:37;12.72;69.56
65374;SHT31;52070;53.760;9.678;2024-03-02T10:19:18;12.82;67.96
65374;SHT31;52070;53.760;9.678;2024-03-02T10:21:47;12.59;68.42
65374;SHT31;52070;53.760;9.678;2024-03-02T10:24:15;12.35;68.57
65374;SHT31;52070;53.760;9.678;2024-03-02T10:26:42;12.18;68.66
65374;SHT31;52070;53.760;9.678;2024-03-02T10:29:09;12.27;69.24
65374;SHT31;52070;53.760;9.678;2024-03-02T10:31:37;12.30;68.95
65374;SHT31;52070;53.760;9.678;2024-03-02T10:34:05;12.51;68.99
65374;SHT31;52070;53.760;9.678;2024-03-02T10:36:32;12.89;70.02
65374;SHT31;52070;53.760;9.678;2024-03-02T10:39:03;12.65;67.30
65374;SHT31;52070;53.760;9.678;2024-03-02T10:41:32;12.47;67.76
65374;SHT31;52070;53.760;9.678;2024-03-02T10:44:02;12.45;68.15
65374;SHT31;52070;53.760;9.678;2024-03-02T10:46:30;12.58;67.95
65374;SHT31;52070;53.760;9.678;2024-03-02T10:48:58;12.78;68.41
65374;SHT31;52070;53.760;9.678;2024-03-02T10:51:26;12.72;67.26
65374;SHT31;52070;53.760;9.678;2024-03-02T10:53:57;12.69;68.02
65374;SHT31;52070;53.760;9.678;2024-03-02T10:56:29;12.49;67.02
65374;SHT31;52070;53.760;9.678;2024-03-02T10:59:02;12.27;66.91
65374;SHT31;52070;53.760;9.678;2024-03-02T11:01:30;12.25;68.01
65374;SHT31;52070;53.760;9.678;2024-03-02T11:03:58;12.48;68.30
65374;SHT31;52070;53.760;9.678;2024-03-02T11:06:28;12.54;67.62
65374;SHT31;52070;53.760;9.678;2024-03-02T11:08:58;12.47;67.92
65374;SHT31;52070;53.760;9.678;2024-03-02T11:11:36;12.72;67.80
65374;SHT31;52070;53.760;9.678;2024-03-02T11:14:07;12.85;68.68
65374;SHT31;52070;53.760;9.678;2024-03-02T11:16:36;12.81;66.97
65374;SHT31;52070;53.760;9.678;2024-03-02T11:19:05;12.78;66.72
65374;SHT31;52070;53.760;9.678;2024-03-02T11:21:33;12.85;66.26
65374;SHT31;52070;53.760;9.678;2024-03-02T11:24:00;12.79;66.34
65374;SHT31;52070;53.760;9.678;2024-03-02T11:26:28;12.79;65.96
65374;SHT31;52070;53.760;9.678;2024-03-02T11:28:56;12.95;67.34
65374;SHT31;52070;53.760;9.678;2024-03-02T11:31:57;12.85;66.26
65374;SHT31;52070;53.760;9.678;2024-03-02T11:34:29;12.78;65.90
65374;SHT31;52070;53.760;9.678;2024-03-02T11:36:57;12.85;65.96
65374;SHT31;52070;53.760;9.678;2024-03-02T11:39:24;12.99;66.57
65374;SHT31;52070;53.760;9.678;2024-03-02T11:41:51;12.95;64.44
65374;SHT31;52070;53.760;9.678;2024-03-02T11:44:22;13.06;65.19
65374;SHT31;52070;53.760;9.678;2024-03-02T11:46:52;13.00;64.63
65374;SHT31;52070;53.760;9.678;2024-03-02T11:49:36;12.91;64.21
65374;SHT31;52070;53.760;9.678;2024-03-02T11:52:04;12.92;65.02
65374;SHT31;52070;53.760;9.678;2024-03-02T11:54:32;12.92;64.25
65374;SHT31;52070;53.760;9.678;2024-03-02T11:57:01;12.93;64.57
65374;SHT31;52070;53.760;9.678;2024-03-02T11:59:30;12.87;62.91
65374;SHT31;52070;53.760;9.678;2024-03-02T12:01:58;12.95;63.92
65374;SHT31;52070;53.760;9.678;2024-03-02T12:04:26;13.13;64.99
65374;SHT31;52070;53.760;9.678;2024-03-02T12:06:54;13.15;65.44
65374;SHT31;52070;53.760;9.678;2024-03-02T12:09:22;12.87;64.82
65374;SHT31;52070;53.760;9.678;2024-03-02T12:12:01;12.79;66.17
65374;SHT31;52070;53.760;9.678;2024-03-02T12:14:30;12.79;65.48
65374;SHT31;52070;53.760;9.678;2024-03-02T12:16:57;12.79;64.85
65374;SHT31;52070;53.760;9.678;2024-03-02T12:19:25;12.79;64.36
65374;SHT31;52070;53.760;9.678;2024-03-02T12:21:53;12.93;65.88
65374;SHT31;52070;53.760;9.678;2024-03-02T12:24:21;12.96;64.95
65374;SHT31;52070;53.760;9.678;2024-03-02T12:26:49;13.02;64.29
65374;SHT31;52070;53.760;9.678;2024-03-02T12:29:16;12.89;64.78
65374;SHT31;52070;53.760;9.678;2024-03-02T12:31:44;12.92;64.95
65374;SHT31;52070;53.760;9.678;2024-03-02T12:34:12;12.96;65.50
65374;SHT31;52070;53.760;9.678;2024-03-02T12:36:40;13.09;64.23
65374;SHT31;52070;53.760;9.678;2024-03-02T12:39:07;13.05;63.61
65374;SHT31;52070;53.760;9.678;2024-03-02T12:41:36;13.09;64.15
65374;SHT31;52070;53.760;9.678;2024-03-02T12:44:04;13.19;64.48
65374;SHT31;52070;53.760;9.678;2024-03-02T12:46:31;13.23;63.63
65374;SHT31;52070;53.760;9.678;2024-03-02T12:49:08;13.24;64.36
65374;SHT31;52070;53.760;9.678;2024-03-02T12:51:35;13.47;64.54
65374;SHT31;52070;53.760;9.678;2024-03-02T12:54:03;13.40;62.67
65374;SHT31;52070;53.760;9.678;2024-03-02T12:56:31;13.49;63.60
65374;SHT31;52070;53.760;9.678;2024-03-02T12:58:59;13.47;62.84
65374;SHT31;52070;53.760;9.678;2024-03-02T13:01:26;13.62;63.06
65374;SHT31;52070;53.760;9.678;2024-03-02T13:03:53;13.81;63.07
65374;SHT31;52070;53.760;9.678;2024-03-02T13:06:22;14.04;62.07
65374;SHT31;52070;53.760;9.678;2024-03-02T13:08:50;14.03;61.70
65374;SHT31;52070;53.760;9.678;2024-03-02T13:11:17;14.56;64.15
65374;SHT31;52070;53.760;9.678;2024-03-02T13:13:44;14.80;61.49
65374;SHT31;52070;53.760;9.678;2024-03-02T13:16:12;14.88;59.75
65374;SHT31;52070;53.760;9.678;2024-03-02T13:18:39;14.89;59.61
65374;SHT31;52070;53.760;9.678;2024-03-02T13:21:07;14.78;58.45
65374;SHT31;52070;53.760;9.678;2024-03-02T13:23:35;14.59;58.69
65374;SHT31;52070;53.760;9.678;2024-03-02T13:26:03;14.39;58.85
65374;SHT31;52070;53.760;9.678;2024-03-02T13:28:30;14.13;59.32
65374;SHT31;52070;53.760;9.678;2024-03-02T13:30:57;14.00;59.09
65374;SHT31;52070;53.760;9.678;2024-03-02T13:33:24;14.24;60.76
65374;SHT31;52070;53.760;9.678;2024-03-02T13:35:51;14.32;59.85
65374;SHT31;52070;53.760;9.678;2024-03-02T13:38:19;14.72;59.75
65374;SHT31;52070;53.760;9.678;2024-03-02T13:40:49;15.14;60.16
65374;SHT31;52070;53.760;9.678;2024-03-02T13:43:16;15.68;58.48
65374;SHT31;52070;53.760;9.678;2024-03-02T13:45:44;15.26;56.00
65374;SHT31;52070;53.760;9.678;2024-03-02T13:48:11;15.02;57.27
65374;SHT31;52070;53.760;9.678;2024-03-02T13:50:38;15.10;59.07
65374;SHT31;52070;53.760;9.678;2024-03-02T13:53:05;15.39;58.32
65374;SHT31;52070;53.760;9.678;2024-03-02T13:55:32;15.46;57.90
65374;SHT31;52070;53.760;9.678;2024-03-02T13:58:00;15.43;58.77
65374;SHT31;52070;53.760;9.678;2024-03-02T14:00:28;15.37;58.78
65374;SHT31;52070;53.760;9.678;2024-03-02T14:02:55;15.09;58.59
65374;SHT31;52070;53.760;9.678;2024-03-02T14:05:22;14.96;59.28
65374;SHT31;52070;53.760;9.678;2024-03-02T14:07:49;14.46;60.03
65374;SHT31;52070;53.760;9.678;2024-03-02T14:10:16;14.48;60.66
65374;SHT31;52070;53.760;9.678;2024-03-02T14:12:47;14.00;60.58
65374;SHT31;52070;53.760;9.678;2024-03-02T14:15:16;14.17;62.08
65374;SHT31;52070;53.760;9.678;2024-03-02T14:17:43;14.20;60.89
65374;SHT31;52070;53.760;9.678;2024-03-02T14:20:11;14.24;60.29
65374;SHT31;52070;53.760;9.678;2024-03-02T14:22:39;14.62;61.12
65374;SHT31;52070;53.760;9.678;2024-03-02T14:25:06;14.93;60.43
65374;SHT31;52070;53.760;9.678;2024-03-02T14:27:34;14.96;58.78
65374;SHT31;52070;53.760;9.678;2024-03-02T14:30:02;15.09;59.11
65374;SHT31;52070;53.760;9.678;2024-03-02T14:32:32;15.22;59.28
65374;SHT31;52070;53.760;9.678;2024-03-02T14:34:59;15.40;58.86
65374;SHT31;52070;53.760;9.678;2024-03-02T14:37:26;15.33;59.57
65374;SHT31;52070;53.760;9.678;2024-03-02T14:39:53;15.54;58.30
65374;SHT31;52070;53.760;9.678;2024-03-02T14:42:21;15.00;57.24
65374;SHT31;52070;53.760;9.678;2024-03-02T14:44:48;14.86;59.41
65374;SHT31;52070;53.760;9.678;2024-03-02T14:47:15;14.46;58.70
65374;SHT31;52070;53.760;9.678;2024-03-02T14:49:44;14.65;60.60
65374;SHT31;52070;53.760;9.678;2024-03-02T14:52:11;14.75;58.89
65374;SHT31;52070;53.760;9.678;2024-03-02T14:54:38;14.55;59.13
65374;SHT31;52070;53.760;9.678;2024-03-02T14:57:05;15.23;60.61
65374;SHT31;52070;53.760;9.678;2024-03-02T14:59:34;15.43;60.66
65374;SHT31;52070;53.760;9.678;2024-03-02T15:02:01;15.73;58.09
65374;SHT31;52070;53.760;9.678;2024-03-02T15:04:28;15.92;58.50
65374;SHT31;52070;53.760;9.678;2024-03-02T15:06:57;15.53;56.88
65374;SHT31;52070;53.760;9.678;2024-03-02T15:09:24;15.77;58.90
65374;SHT31;52070;53.760;9.678;2024-03-02T15:11:51;15.75;58.88
65374;SHT31;52070;53.760;9.678;2024-03-02T15:14:18;15.74;57.12
65374;SHT31;52070;53.760;9.678;2024-03-02T15:16:45;15.67;57.25
65374;SHT31;52070;53.760;9.678;2024-03-02T15:19:12;15.50;58.09
65374;SHT31;52070;53.760;9.678;2024-03-02T15:21:39;15.75;57.66
65374;SHT31;52070;53.760;9.678;2024-03-02T15:24:07;16.06;58.04
65374;SHT31;52070;53.760;9.678;2024-03-02T15:26:34;15.36;57.78
65374;SHT31;52070;53.760;9.678;2024-03-02T15:29:01;15.30;60.16
65374;SHT31;52070;53.760;9.678;2024-03-02T15:31:28;15.44;59.02
65374;SHT31;52070;53.760;9.678;2024-03-02T15:33:55;15.27;58.67
65374;SHT31;52070;53.760;9.678;2024-03-02T15:36:22;14.73;59.44
65374;SHT31;52070;53.760;9.678;2024-03-02T15:38:49;14.52;61.29
65374;SHT31;52070;53.760;9.678;2024-03-02T15:41:18;14.48;60.69
65374;SHT31;52070;53.760;9.678;2024-03-02T15:43:45;14.51;60.84
65374;SHT31;52070;53.760;9.678;2024-03-02T15:46:12;14.39;61.19
65374;SHT31;52070;53.760;9.678;2024-03-02T15:48:39;14.38;61.57